Time;durP1;ratioP1;P1;durP2;ratioP2;P2;SDS_P1;SDS_P2;PMS_P1;PMS_P2;Temp;Humidity;BMP_temperature;BMP_pressure;BME280_temperature;BME280_humidity;BME280_pressure;Samples;Min_cycle;Max_cycle;Signal;HPM_P1;HPM_P2
2021/12/05 00:23:18;;;;;;;27.48;11.30;;;;;;;-142.18;100.00;63825.25;5057012;28;20063;-73
2021/12/05 00:25:51;;;;;;;26.48;12.10;;;;;;;-142.18;100.00;63825.25;5073592;28;20137;-73
2021/12/05 00:31:27;;;;;;;21.27;10.23;;;;;;;-142.18;100.00;63825.25;5075572;28;20451;-73
2021/12/05 00:34:01;;;;;;;22.77;10.82;;;;;;;-142.18;100.00;63825.25;5075725;28;20452;-73
2021/12/05 00:37:35;;;;;;;19.02;10.27;;;;;;;-142.18;100.00;63825.25;5058142;28;20172;-73
2021/12/05 00:45:28;;;;;;;26.52;9.85;;;;;;;-142.18;100.00;63825.25;5076701;28;20445;-72
2021/12/05 00:51:13;;;;;;;23.33;10.60;;;;;;;-142.18;100.00;63825.25;4993599;28;20122;-73
2021/12/05 01:10:14;;;;;;;17.00;7.90;;;;;;;-142.18;100.00;63825.25;5074785;28;20045;-73
2021/12/05 01:15:47;;;;;;;20.02;8.30;;;;;;;-142.18;100.00;63825.25;5094648;28;20068;-73
2021/12/05 01:18:17;;;;;;;19.88;8.55;;;;;;;-142.18;100.00;63825.25;5095578;28;20060;-73
2021/12/05 01:20:53;;;;;;;20.30;8.23;;;;;;;-142.18;100.00;63825.25;5077864;28;20098;-73
2021/12/05 01:26:08;;;;;;;15.65;7.40;;;;;;;-142.18;100.00;63825.25;5096920;28;20101;-72
2021/12/05 01:32:18;;;;;;;19.75;6.80;;;;;;;-142.18;100.00;63825.25;5095881;28;20095;-72
2021/12/05 01:45:31;;;;;;;14.55;6.30;;;;;;;-142.18;100.00;63825.25;5073305;28;20143;-72
2021/12/05 02:01:46;;;;;;;15.90;6.90;;;;;;;-142.18;100.00;63825.25;5094034;28;20155;-72
2021/12/05 02:09:58;;;;;;;13.95;6.22;;;;;;;-142.18;100.00;63825.25;5094538;28;20061;-72
2021/12/05 02:15:14;;;;;;;15.63;7.55;;;;;;;-142.18;100.00;63825.25;5085018;28;20060;-72
2021/12/05 02:15:38;;;;;;;20.17;8.05;;;;;;;-142.18;100.00;63825.25;5094121;28;20196;-72
2021/12/05 02:29:38;;;;;;;15.82;7.40;;;;;;;-142.18;100.00;63825.25;5095340;28;20131;-72
2021/12/05 02:40:09;;;;;;;16.15;7.38;;;;;;;-142.18;100.00;63825.25;5095899;28;20056;-72
2021/12/05 02:42:46;;;;;;;14.95;7.10;;;;;;;-142.18;100.00;63825.25;5089057;28;20057;-72
2021/12/05 02:45:13;;;;;;;17.50;8.10;;;;;;;-142.18;100.00;63825.25;5077754;28;20057;-72
2021/12/05 02:47:48;;;;;;;19.05;7.97;;;;;;;-142.18;100.00;63825.25;5095555;28;20458;-72
2021/12/05 02:50:16;;;;;;;14.48;6.55;;;;;;;-142.18;100.00;63825.25;5095960;28;20091;-73
2021/12/05 02:52:43;;;;;;;15.23;7.18;;;;;;;-142.18;100.00;63825.25;5095461;28;20048;-72
2021/12/05 02:55:23;;;;;;;13.10;7.03;;;;;;;-142.18;100.00;63825.25;5094018;28;20470;-73
2021/12/05 02:57:56;;;;;;;16.77;7.82;;;;;;;-142.18;100.00;63825.25;5096891;28;20060;-72
2021/12/05 03:03:34;;;;;;;14.40;6.95;;;;;;;-142.18;100.00;63825.25;5056024;28;19928;-72
2021/12/05 03:06:16;;;;;;;15.07;7.00;;;;;;;-142.18;100.00;63825.25;5055700;28;20232;-74
2021/12/05 03:08:45;;;;;;;12.30;6.65;;;;;;;-142.18;100.00;63825.25;5080712;28;20099;-73
2021/12/05 03:11:13;;;;;;;14.32;7.30;;;;;;;-142.18;100.00;63825.25;5097591;28;20061;-73
2021/12/05 03:13:40;;;;;;;17.95;7.47;;;;;;;-142.18;100.00;63825.25;5078817;28;20126;-73
2021/12/05 03:16:11;;;;;;;13.57;7.25;;;;;;;-142.18;100.00;63825.25;5098392;28;20060;-72
2021/12/05 03:18:39;;;;;;;14.32;7.03;;;;;;;-142.18;100.00;63825.25;5097711;28;20064;-73
2021/12/05 03:21:08;;;;;;;12.52;6.88;;;;;;;-142.18;100.00;63825.25;5096704;28;20512;-73
2021/12/05 03:23:41;;;;;;;16.80;6.97;;;;;;;-142.18;100.00;63825.25;5096696;28;20488;-73
2021/12/05 03:26:17;;;;;;;13.70;7.15;;;;;;;-142.18;100.00;63825.25;5079620;28;20088;-73
2021/12/05 03:28:44;;;;;;;15.63;6.65;;;;;;;-142.18;100.00;63825.25;5079049;28;20151;-73
2021/12/05 03:31:11;;;;;;;17.23;7.43;;;;;;;-142.18;100.00;63825.25;5097522;28;20143;-73
2021/12/05 03:33:38;;;;;;;16.42;6.57;;;;;;;-142.18;100.00;63825.25;5096628;28;20104;-73
2021/12/05 03:36:07;;;;;;;15.52;7.07;;;;;;;-142.18;100.00;63825.25;5078837;28;20143;-73
2021/12/05 03:38:35;;;;;;;14.82;6.75;;;;;;;-142.18;100.00;63825.25;5098456;28;20067;-73
2021/12/05 03:41:03;;;;;;;12.82;6.50;;;;;;;-142.18;100.00;63825.25;5097478;28;20069;-73
2021/12/05 03:43:31;;;;;;;17.85;7.55;;;;;;;-142.18;100.00;63825.25;5098261;28;20475;-73
2021/12/05 03:45:58;;;;;;;18.95;6.80;;;;;;;-142.18;100.00;63825.25;5079448;28;20142;-73
2021/12/05 03:48:28;;;;;;;14.45;6.88;;;;;;;-142.18;100.00;63825.25;5096903;28;20060;-73
2021/12/05 03:50:56;;;;;;;12.85;6.40;;;;;;;-142.18;100.00;63825.25;5097217;28;20052;-73
2021/12/05 03:53:23;;;;;;;12.57;6.13;;;;;;;-142.18;100.00;63825.25;5096034;28;20118;-73
2021/12/05 03:55:52;;;;;;;9.77;5.82;;;;;;;-142.18;100.00;63825.25;5077702;28;20060;-73
2021/12/05 03:58:19;;;;;;;13.88;6.43;;;;;;;-142.18;100.00;63825.25;5096368;28;20068;-73
2021/12/05 04:00:52;;;;;;;15.70;5.97;;;;;;;-142.18;100.00;63825.25;5097018;28;20084;-73
2021/12/05 04:03:22;;;;;;;16.77;5.90;;;;;;;-142.18;100.00;63825.25;5077821;28;20080;-73
2021/12/05 04:05:49;;;;;;;10.57;5.50;;;;;;;-142.18;100.00;63825.25;5096005;28;20139;-73
2021/12/05 04:08:19;;;;;;;12.73;5.95;;;;;;;-142.18;100.00;63825.25;5096063;28;20061;-73
2021/12/05 04:10:51;;;;;;;18.02;6.13;;;;;;;-142.18;100.00;63825.25;5094164;28;20079;-73
2021/12/05 04:13:18;;;;;;;18.92;6.68;;;;;;;-142.18;100.00;63825.25;5093060;28;20129;-73
2021/12/05 04:15:49;;;;;;;13.90;5.97;;;;;;;-142.18;100.00;63825.25;5095132;28;20131;-73
2021/12/05 04:18:17;;;;;;;15.85;6.22;;;;;;;-142.18;100.00;63825.25;5094710;28;20143;-73
2021/12/05 04:20:45;;;;;;;11.95;6.97;;;;;;;-142.18;100.00;63825.25;5093803;28;20386;-73
2021/12/05 04:23:12;;;;;;;13.05;6.70;;;;;;;-142.18;100.00;63825.25;5076053;28;20060;-73
2021/12/05 04:25:41;;;;;;;13.68;6.43;;;;;;;-142.18;100.00;63825.25;5094476;28;20454;-73
2021/12/05 04:28:09;;;;;;;13.15;7.78;;;;;;;-142.18;100.00;63825.25;5094623;28;20453;-73
2021/12/05 04:30:36;;;;;;;16.13;8.20;;;;;;;-142.18;100.00;63825.25;5095411;28;20395;-73
2021/12/05 04:33:04;;;;;;;17.08;7.35;;;;;;;-142.18;100.00;63825.25;5094326;28;20057;-73
2021/12/05 04:35:30;;;;;;;12.02;7.07;;;;;;;-142.18;100.00;63825.25;5095065;28;20765;-73
2021/12/05 04:37:57;;;;;;;17.73;7.20;;;;;;;-142.18;100.00;63825.25;5075794;28;20486;-73
2021/12/05 04:40:24;;;;;;;14.80;7.32;;;;;;;-142.18;100.00;63825.25;5094214;28;20065;-73
2021/12/05 04:42:50;;;;;;;19.15;7.90;;;;;;;-142.18;100.00;63825.25;5076107;28;20096;-73
2021/12/05 04:45:24;;;;;;;18.80;8.73;;;;;;;-142.18;100.00;63825.25;5077942;28;20080;-73
2021/12/05 04:47:50;;;;;;;17.90;7.95;;;;;;;-142.18;100.00;63825.25;5078314;28;20056;-73
2021/12/05 04:50:17;;;;;;;15.93;7.90;;;;;;;-142.18;100.00;63825.25;5094404;28;20064;-73
2021/12/05 04:52:44;;;;;;;14.55;7.43;;;;;;;-142.18;100.00;63825.25;5075549;28;20149;-73
2021/12/05 04:55:11;;;;;;;18.40;7.70;;;;;;;-142.18;100.00;63825.25;5094814;28;20067;-72
2021/12/05 04:57:40;;;;;;;10.50;6.57;;;;;;;-142.18;100.00;63825.25;5075508;28;20061;-73
2021/12/05 05:00:12;;;;;;;13.20;7.30;;;;;;;-142.18;100.00;63825.25;5076759;28;20064;-73
2021/12/05 05:02:39;;;;;;;13.63;7.70;;;;;;;-142.18;100.00;63825.25;5093560;28;20152;-72
2021/12/05 05:05:09;;;;;;;13.60;6.88;;;;;;;-142.18;100.00;63825.25;5094356;28;20484;-73
2021/12/05 05:07:37;;;;;;;10.77;6.70;;;;;;;-142.18;100.00;63825.25;5095965;28;20486;-73
2021/12/05 05:10:10;;;;;;;9.48;5.57;;;;;;;-142.18;100.00;63825.25;5094747;28;20132;-72
2021/12/05 05:12:37;;;;;;;12.00;5.80;;;;;;;-142.18;100.00;63825.25;5077373;28;20538;-73
2021/12/05 05:15:05;;;;;;;9.65;5.45;;;;;;;-142.18;100.00;63825.25;5096774;28;20686;-73
2021/12/05 05:17:33;;;;;;;8.57;5.70;;;;;;;-142.18;100.00;63825.25;5096175;28;20600;-73
2021/12/05 05:20:05;;;;;;;11.18;4.90;;;;;;;-142.18;100.00;63825.25;5095205;28;20060;-73
2021/12/05 05:23:25;;;;;;;15.38;7.32;;;;;;;-142.18;100.00;63825.25;5077965;28;20139;-73
2021/12/05 05:41:55;;;;;;;7.82;3.65;;;;;;;-142.18;100.00;63825.25;5114919;28;20070;-72
2021/12/05 05:49:15;;;;;;;7.80;3.58;;;;;;;-142.18;100.00;63825.25;5114596;28;20059;-73
2021/12/05 05:51:43;;;;;;;10.25;4.38;;;;;;;-142.18;100.00;63825.25;5115842;28;20078;-73
2021/12/05 05:54:11;;;;;;;7.57;3.88;;;;;;;-142.18;100.00;63825.25;5098317;28;20044;-73
2021/12/05 05:56:42;;;;;;;8.13;3.83;;;;;;;-142.18;100.00;63825.25;5116069;28;20055;-73
2021/12/05 05:59:37;;;;;;;6.20;3.63;;;;;;;-142.18;100.00;63825.25;5116128;28;20126;-73
2021/12/05 06:03:18;;;;;;;10.43;4.03;;;;;;;-142.18;100.00;63825.25;5115366;28;20111;-73
2021/12/05 06:04:48;;;;;;;8.10;3.00;;;;;;;-142.18;100.00;63825.25;5114378;28;20059;-73
2021/12/05 06:07:15;;;;;;;7.63;3.65;;;;;;;-142.18;100.00;63825.25;5097774;28;20442;-73
2021/12/05 06:09:42;;;;;;;9.90;3.65;;;;;;;-142.18;100.00;63825.25;5115241;28;20067;-73
2021/12/05 06:12:09;;;;;;;7.35;3.38;;;;;;;-142.18;100.00;63825.25;5094739;28;20500;-73
2021/12/05 06:14:36;;;;;;;11.48;3.38;;;;;;;-142.18;100.00;63825.25;5097436;28;20060;-73
2021/12/05 06:17:02;;;;;;;8.40;3.60;;;;;;;-142.18;100.00;63825.25;5095578;28;20083;-74
2021/12/05 06:19:29;;;;;;;4.68;3.13;;;;;;;-142.18;100.00;63825.25;5094103;28;20056;-73
2021/12/05 06:21:57;;;;;;;5.53;3.70;;;;;;;-142.18;100.00;63825.25;5094198;28;20477;-72
2021/12/05 06:24:25;;;;;;;7.30;3.80;;;;;;;-142.18;100.00;63825.25;5092662;28;20144;-72
2021/12/05 06:26:52;;;;;;;11.85;3.75;;;;;;;-142.18;100.00;63825.25;5094007;28;20459;-72
2021/12/05 06:29:21;;;;;;;10.15;3.72;;;;;;;-142.18;100.00;63825.25;5092787;28;20118;-72
2021/12/05 06:32:14;;;;;;;14.38;3.88;;;;;;;-142.18;100.00;63825.25;5076887;28;20060;-72
2021/12/05 06:37:46;;;;;;;9.82;4.13;;;;;;;-142.18;100.00;63825.25;5093897;28;20049;-72
2021/12/05 06:40:24;;;;;;;10.85;4.45;;;;;;;-142.18;100.00;63825.25;5095676;28;20193;-73
2021/12/05 06:43:03;;;;;;;16.42;4.53;;;;;;;-142.18;100.00;63825.25;5095351;28;20409;-73
2021/12/05 06:48:14;;;;;;;11.20;5.50;;;;;;;-142.18;100.00;63825.25;5095100;28;20084;-73
2021/12/05 06:50:43;;;;;;;12.30;5.55;;;;;;;-142.18;100.00;63825.25;5078981;28;20773;-73
2021/12/05 06:53:10;;;;;;;9.75;4.25;;;;;;;-142.18;100.00;63825.25;5078368;28;20057;-73
2021/12/05 06:55:43;;;;;;;10.60;4.82;;;;;;;-142.18;100.00;63825.25;5077350;28;20098;-73
2021/12/05 06:58:11;;;;;;;12.18;5.80;;;;;;;-142.18;100.00;63825.25;5077744;28;20079;-73
2021/12/05 07:00:38;;;;;;;12.18;5.70;;;;;;;-142.18;100.00;63825.25;5095805;28;20056;-73
2021/12/05 07:03:07;;;;;;;14.48;5.28;;;;;;;-142.18;100.00;63825.25;5095817;28;20493;-73
2021/12/05 07:05:43;;;;;;;12.02;5.32;;;;;;;-142.18;100.00;63825.25;5095379;28;20061;-73
2021/12/05 07:08:13;;;;;;;15.32;4.85;;;;;;;-142.18;100.00;63825.25;5096289;28;20107;-73
2021/12/05 07:10:55;;;;;;;18.80;7.15;;;;;;;-142.18;100.00;63825.25;5077464;28;20061;-73
2021/12/05 07:16:02;;;;;;;13.70;6.75;;;;;;;-142.18;100.00;63825.25;5093594;28;20141;-73
2021/12/05 07:21:25;;;;;;;15.32;7.63;;;;;;;-142.18;100.00;63825.25;5091469;28;20060;-73
2021/12/05 07:24:03;;;;;;;15.63;6.60;;;;;;;-142.18;100.00;63825.25;5091674;28;20057;-73
2021/12/05 07:40:30;;;;;;;14.73;7.47;;;;;;;-142.18;100.00;63825.25;5094329;28;20159;-73
2021/12/05 07:42:58;;;;;;;16.17;8.30;;;;;;;-142.18;100.00;63825.25;5076693;28;20056;-73
2021/12/05 07:45:33;;;;;;;22.15;10.48;;;;;;;-142.18;100.00;63825.25;5092621;28;20069;-73
2021/12/05 07:48:10;;;;;;;20.77;11.77;;;;;;;-142.18;100.00;63825.25;5093431;28;20076;-73
2021/12/05 07:50:53;;;;;;;22.48;10.90;;;;;;;-142.18;100.00;63825.25;5078750;28;20080;-73
2021/12/05 07:53:30;;;;;;;20.15;10.90;;;;;;;-142.18;100.00;63825.25;5078431;28;20806;-73
2021/12/05 07:56:04;;;;;;;21.30;9.88;;;;;;;-142.18;100.00;63825.25;5096446;28;20066;-73
2021/12/05 07:58:53;;;;;;;19.98;9.27;;;;;;;-142.18;100.00;63825.25;5098372;28;20064;-73
2021/12/05 08:14:21;;;;;;;12.65;5.85;;;;;;;-142.18;100.00;63825.25;5097376;28;20100;-73
2021/12/05 08:15:21;;;;;;;13.40;5.93;;;;;;;-142.18;100.00;63825.25;5097857;28;20052;-73
2021/12/05 08:17:53;;;;;;;12.50;5.70;;;;;;;-142.18;100.00;63825.25;5080822;28;20075;-74
2021/12/05 08:20:30;;;;;;;14.05;5.43;;;;;;;-142.18;100.00;63825.25;5096483;28;20057;-74
2021/12/05 08:22:59;;;;;;;10.90;4.20;;;;;;;-142.18;100.00;63825.25;5096632;28;20165;-74
2021/12/05 08:25:29;;;;;;;8.65;3.58;;;;;;;-142.18;100.00;63825.25;5095702;28;20176;-74
2021/12/05 08:30:58;;;;;;;5.45;2.70;;;;;;;-142.18;100.00;63825.25;5058178;28;20135;-74
2021/12/05 08:33:53;;;;;;;8.27;3.22;;;;;;;-142.18;100.00;63825.25;5076991;28;20149;-71
2021/12/05 09:20:54;;;;;;;10.10;2.92;;;;;;;-142.18;100.00;63825.25;5097880;28;20079;-73
2021/12/05 09:26:19;;;;;;;8.38;2.67;;;;;;;-142.18;100.00;63825.25;5099145;28;20064;-74
2021/12/05 09:38:34;;;;;;;9.60;2.72;;;;;;;-142.18;100.00;63825.25;5096136;28;20064;-73
2021/12/05 10:07:35;;;;;;;10.05;3.65;;;;;;;-142.18;100.00;63825.25;5112441;28;20177;-74
2021/12/05 10:10:35;;;;;;;12.50;2.40;;;;;;;-142.18;100.00;63825.25;5113487;28;20084;-75
2021/12/05 10:13:57;;;;;;;19.77;7.00;;;;;;;-142.18;100.00;63825.25;5114838;28;20056;-74
2021/12/05 10:16:27;;;;;;;9.27;2.60;;;;;;;-142.18;100.00;63825.25;5105963;28;20101;-75
2021/12/05 10:27:21;;;;;;;8.40;2.70;;;;;;;-142.18;100.00;63825.25;5094106;28;20149;-75
2021/12/05 10:35:50;;;;;;;7.28;2.40;;;;;;;-142.18;100.00;63825.25;5113896;28;20109;-74
2021/12/05 10:38:26;;;;;;;7.45;2.25;;;;;;;-142.18;100.00;63825.25;5095819;28;20334;-74
2021/12/05 10:43:54;;;;;;;8.77;1.95;;;;;;;-142.18;100.00;63825.25;5075559;28;20809;-74
2021/12/05 10:46:24;;;;;;;11.05;2.92;;;;;;;-142.18;100.00;63825.25;5094077;28;20154;-74
2021/12/05 10:48:53;;;;;;;8.93;2.40;;;;;;;-142.18;100.00;63825.25;5107637;28;20772;-73
2021/12/05 10:51:27;;;;;;;41.08;16.98;;;;;;;-142.18;100.00;63825.25;5090167;28;20080;-74
2021/12/05 10:54:07;;;;;;;19.88;7.30;;;;;;;-142.18;100.00;63825.25;5075292;28;20849;-74
2021/12/05 10:56:42;;;;;;;6.90;2.20;;;;;;;-142.18;100.00;63825.25;5073079;28;20056;-74
2021/12/05 10:59:13;;;;;;;10.43;2.53;;;;;;;-142.18;100.00;63825.25;5071832;28;20144;-73
2021/12/05 11:01:44;;;;;;;8.75;2.88;;;;;;;-142.18;100.00;63825.25;5074351;28;20419;-74
2021/12/05 11:04:15;;;;;;;7.03;1.83;;;;;;;-142.18;100.00;63825.25;5074468;28;20087;-74
2021/12/05 11:06:55;;;;;;;6.85;1.77;;;;;;;-142.18;100.00;63825.25;5089752;28;20068;-73
2021/12/05 11:09:28;;;;;;;14.07;5.07;;;;;;;-142.18;100.00;63825.25;5091986;28;20513;-74
2021/12/05 11:11:58;;;;;;;;;;;;;;;-142.18;100.00;63825.25;5075309;28;20235;-73
2021/12/05 11:14:29;;;;;;;6.00;2.10;;;;;;;-142.18;100.00;63825.25;5093656;28;19994;-74
2021/12/05 11:17:06;;;;;;;7.68;2.40;;;;;;;-142.18;100.00;63825.25;5075789;28;20071;-74
2021/12/05 11:19:53;;;;;;;5.78;2.08;;;;;;;-142.18;100.00;63825.25;5074180;28;20133;-74
2021/12/05 11:22:23;;;;;;;6.88;1.98;;;;;;;-142.18;100.00;63825.25;5093063;28;20064;-74
2021/12/05 11:24:55;;;;;;;4.82;1.70;;;;;;;-142.18;100.00;63825.25;5095250;28;20156;-74
2021/12/05 11:27:42;;;;;;;7.00;1.90;;;;;;;-142.18;100.00;63825.25;5094257;28;20060;-74
2021/12/05 11:30:22;;;;;;;6.93;2.00;;;;;;;-142.18;100.00;63825.25;5078649;28;20067;-74
2021/12/05 11:32:49;;;;;;;5.95;1.92;;;;;;;-142.18;100.00;63825.25;5078663;28;20474;-75
2021/12/05 11:35:32;;;;;;;11.48;4.47;;;;;;;-142.18;100.00;63825.25;5079589;28;20062;-75
2021/12/05 11:38:22;;;;;;;3.60;1.75;;;;;;;-142.18;100.00;63825.25;5097997;28;20064;-75
2021/12/05 11:41:06;;;;;;;6.20;2.25;;;;;;;-142.18;100.00;63825.25;5096817;28;20059;-74
2021/12/05 11:44:02;;;;;;;5.80;1.98;;;;;;;-142.18;100.00;63825.25;5078854;28;20060;-74
2021/12/05 11:46:35;;;;;;;4.65;1.98;;;;;;;-142.18;100.00;63825.25;5074195;28;20065;-75
2021/12/05 11:49:10;;;;;;;8.95;2.22;;;;;;;-142.18;100.00;63825.25;5076807;28;20067;-74
2021/12/05 11:51:44;;;;;;;11.30;2.63;;;;;;;-142.18;100.00;63825.25;5094585;28;20115;-74
2021/12/05 11:54:16;;;;;;;6.82;2.25;;;;;;;-142.18;100.00;63825.25;5094301;28;20063;-74
2021/12/05 11:57:14;;;;;;;8.38;2.28;;;;;;;-142.18;100.00;63825.25;5077875;28;20150;-74
2021/12/05 11:59:43;;;;;;;5.50;2.05;;;;;;;-142.18;100.00;63825.25;5060171;28;20048;-66
2021/12/05 12:02:14;;;;;;;6.55;2.30;;;;;;;-142.18;100.00;63825.25;5094070;28;20113;-66
2021/12/05 12:04:57;;;;;;;3.25;1.67;;;;;;;-142.18;100.00;63825.25;5092371;28;20831;-66
2021/12/05 12:07:53;;;;;;;6.22;1.90;;;;;;;-142.18;100.00;63825.25;5092461;28;20067;-67
2021/12/05 12:10:28;;;;;;;6.85;3.05;;;;;;;-142.18;100.00;63825.25;5093054;28;20065;-67
2021/12/05 12:13:08;;;;;;;11.95;3.95;;;;;;;-142.18;100.00;63825.25;5093276;28;20055;-66
2021/12/05 12:15:36;;;;;;;13.35;4.18;;;;;;;-142.18;100.00;63825.25;5092526;28;20084;-67
2021/12/05 12:18:13;;;;;;;11.52;3.50;;;;;;;-142.18;100.00;63825.25;5086751;28;20896;-67
2021/12/05 12:20:41;;;;;;;11.75;2.92;;;;;;;-142.18;100.00;63825.25;5096874;28;20083;-67
2021/12/05 12:23:08;;;;;;;7.50;2.90;;;;;;;-142.18;100.00;63825.25;5115780;28;20055;-67
2021/12/05 12:25:37;;;;;;;6.68;3.38;;;;;;;-142.18;100.00;63825.25;5116083;28;20059;-67
2021/12/05 12:28:07;;;;;;;8.75;3.17;;;;;;;-142.18;100.00;63825.25;5097450;28;20512;-66
2021/12/05 12:30:41;;;;;;;10.15;3.67;;;;;;;-142.18;100.00;63825.25;5092225;28;20052;-66
2021/12/05 12:33:16;;;;;;;8.90;3.95;;;;;;;-142.18;100.00;63825.25;5072839;28;20122;-66
2021/12/05 12:35:45;;;;;;;17.73;4.60;;;;;;;-142.18;100.00;63825.25;5071812;28;20155;-66
2021/12/05 12:38:24;;;;;;;17.38;6.40;;;;;;;-142.18;100.00;63825.25;5092011;28;20143;-67
2021/12/05 12:41:01;;;;;;;11.38;3.78;;;;;;;-142.18;100.00;63825.25;5071406;28;21117;-66
2021/12/05 12:43:56;;;;;;;9.48;3.00;;;;;;;-142.18;100.00;63825.25;5053712;28;20080;-67
2021/12/05 12:46:33;;;;;;;29.55;5.03;;;;;;;-142.18;100.00;63825.25;5087503;28;20056;-67
2021/12/05 12:49:18;;;;;;;7.43;2.78;;;;;;;-142.18;100.00;63825.25;5089423;28;20166;-66
2021/12/05 12:51:54;;;;;;;12.55;3.22;;;;;;;-142.18;100.00;63825.25;5091314;28;20056;-66
2021/12/05 12:54:57;;;;;;;7.97;2.53;;;;;;;-142.18;100.00;63825.25;5073136;28;20147;-66
2021/12/05 12:57:31;;;;;;;6.90;2.42;;;;;;;-142.18;100.00;63825.25;5025687;28;20062;-67
2021/12/05 13:00:03;;;;;;;;;;;;;;;-142.18;100.00;63825.25;5068053;28;20477;-67
2021/12/05 13:11:43;;;;;;;7.60;2.70;;;;;;;-142.18;100.00;63825.25;5091149;28;20079;-67
2021/12/05 13:14:11;;;;;;;10.13;3.53;;;;;;;-142.18;100.00;63825.25;5072632;28;20057;-66
2021/12/05 13:16:42;;;;;;;5.18;2.40;;;;;;;-142.18;100.00;63825.25;5097845;28;20170;-66
2021/12/05 13:19:28;;;;;;;5.68;2.60;;;;;;;-142.18;100.00;63825.25;5091296;28;20150;-67
2021/12/05 13:22:06;;;;;;;12.60;2.60;;;;;;;-142.18;100.00;63825.25;5089574;28;20153;-66
2021/12/05 13:24:42;;;;;;;5.53;2.30;;;;;;;-142.18;100.00;63825.25;5090638;28;20522;-66
2021/12/05 13:27:26;;;;;;;10.65;3.25;;;;;;;-142.18;100.00;63825.25;5073485;28;20060;-67
2021/12/05 13:30:02;;;;;;;18.08;6.40;;;;;;;-142.18;100.00;63825.25;5088630;28;20067;-67
2021/12/05 13:32:30;;;;;;;;;;;;;;;-142.18;100.00;63825.25;5093841;28;20181;-66
2021/12/05 13:35:00;;;;;;;8.13;3.47;;;;;;;-142.18;100.00;63825.25;5093430;28;20660;-67
2021/12/05 13:37:45;;;;;;;9.98;5.47;;;;;;;-142.18;100.00;63825.25;5092173;28;20060;-66
2021/12/05 13:40:15;;;;;;;9.77;4.03;;;;;;;-142.18;100.00;63825.25;5089125;28;20110;-67
2021/12/05 13:42:55;;;;;;;8.35;3.17;;;;;;;-142.18;100.00;63825.25;5091982;28;20458;-66
2021/12/05 13:45:27;;;;;;;7.18;2.97;;;;;;;-142.18;100.00;63825.25;5070829;28;20056;-66
2021/12/05 13:47:54;;;;;;;5.97;2.65;;;;;;;-142.18;100.00;63825.25;5064584;28;20485;-66
2021/12/05 13:52:53;;;;;;;11.27;5.32;;;;;;;-142.18;100.00;63825.25;5090161;28;20084;-68
2021/12/05 13:55:49;;;;;;;10.23;3.70;;;;;;;-142.18;100.00;63825.25;5090552;28;20364;-67
2021/12/05 13:58:40;;;;;;;8.30;2.83;;;;;;;-142.18;100.00;63825.25;5091503;28;20138;-67
2021/12/05 14:01:11;;;;;;;12.00;5.90;;;;;;;-142.18;100.00;63825.25;5072846;28;20056;-67
2021/12/05 14:03:55;;;;;;;16.15;8.20;;;;;;;-142.18;100.00;63825.25;5083230;28;20083;-67
2021/12/05 14:06:36;;;;;;;18.83;9.07;;;;;;;-142.18;100.00;63825.25;5072382;28;20048;-68
2021/12/05 14:09:32;;;;;;;10.63;6.22;;;;;;;-142.18;100.00;63825.25;5093073;28;20523;-67
2021/12/05 14:12:03;;;;;;;12.25;6.50;;;;;;;-142.18;100.00;63825.25;5091953;28;20811;-66
2021/12/05 14:14:42;;;;;;;11.98;4.78;;;;;;;-142.18;100.00;63825.25;5085779;28;20765;-66
2021/12/05 14:17:26;;;;;;;8.07;3.95;;;;;;;-142.18;100.00;63825.25;5072945;28;20114;-74
2021/12/05 14:20:19;;;;;;;8.10;4.15;;;;;;;-142.18;100.00;63825.25;5090637;28;20056;-74
2021/12/05 14:22:49;;;;;;;9.20;5.38;;;;;;;-142.18;100.00;63825.25;5073369;28;20187;-74
2021/12/05 14:25:32;;;;;;;18.02;6.95;;;;;;;-142.18;100.00;63825.25;5091038;28;20079;-73
2021/12/05 14:28:06;;;;;;;11.30;6.20;;;;;;;-142.18;100.00;63825.25;5070336;28;20068;-74
2021/12/05 14:30:38;;;;;;;15.47;6.60;;;;;;;-142.18;100.00;63825.25;5090563;28;20053;-74
2021/12/05 14:33:05;;;;;;;15.52;7.95;;;;;;;-142.18;100.00;63825.25;5072936;28;20297;-74
2021/12/05 14:35:37;;;;;;;13.65;7.13;;;;;;;-142.18;100.00;63825.25;5072435;28;20152;-74
2021/12/05 14:38:06;;;;;;;15.60;6.97;;;;;;;-142.18;100.00;63825.25;5068160;28;20057;-74
2021/12/05 14:40:35;;;;;;;12.23;6.53;;;;;;;-142.18;100.00;63825.25;5073617;28;20113;-74
2021/12/05 14:43:08;;;;;;;10.27;4.85;;;;;;;-142.18;100.00;63825.25;5090450;28;20060;-74
2021/12/05 14:45:39;;;;;;;11.55;4.80;;;;;;;-142.18;100.00;63825.25;5091044;28;20087;-74
2021/12/05 14:48:09;;;;;;;9.73;5.30;;;;;;;-142.18;100.00;63825.25;5071444;28;20452;-74
2021/12/05 14:50:48;;;;;;;9.25;4.55;;;;;;;-142.18;100.00;63825.25;5089251;28;20461;-75
2021/12/05 14:53:18;;;;;;;8.57;3.47;;;;;;;-142.18;100.00;63825.25;5087660;28;20480;-75
2021/12/05 14:55:47;;;;;;;7.60;3.70;;;;;;;-142.18;100.00;63825.25;5087842;28;20053;-75
2021/12/05 14:58:17;;;;;;;14.88;5.88;;;;;;;-142.18;100.00;63825.25;5072846;28;20056;-75
2021/12/05 15:00:51;;;;;;;11.88;4.00;;;;;;;-142.18;100.00;63825.25;5093042;28;20180;-74
2021/12/05 15:03:24;;;;;;;9.00;4.30;;;;;;;-142.18;100.00;63825.25;5066804;28;20060;-74
2021/12/05 15:05:55;;;;;;;8.35;3.60;;;;;;;-142.18;100.00;63825.25;5076917;28;20053;-74
2021/12/05 15:08:25;;;;;;;6.28;3.50;;;;;;;-142.18;100.00;63825.25;5076896;28;20053;-74
2021/12/05 15:11:04;;;;;;;10.50;3.90;;;;;;;-142.18;100.00;63825.25;5083544;28;20758;-74
2021/12/05 15:13:32;;;;;;;9.40;4.20;;;;;;;-142.18;100.00;63825.25;5088999;28;20061;-74
2021/12/05 15:15:59;;;;;;;9.73;4.63;;;;;;;-142.18;100.00;63825.25;5093174;28;20473;-74
2021/12/05 15:18:33;;;;;;;9.85;4.40;;;;;;;-142.18;100.00;63825.25;5093735;28;20144;-75
2021/12/05 15:21:01;;;;;;;9.02;4.80;;;;;;;-142.18;100.00;63825.25;5093034;28;20064;-74
2021/12/05 15:23:32;;;;;;;7.95;4.70;;;;;;;-142.18;100.00;63825.25;5091159;28;20063;-74
2021/12/05 15:26:02;;;;;;;14.10;5.10;;;;;;;-142.18;100.00;63825.25;5094791;28;20834;-74
2021/12/05 15:28:29;;;;;;;35.25;18.23;;;;;;;-142.18;100.00;63825.25;5093632;28;20159;-74
2021/12/05 15:30:57;;;;;;;28.00;13.13;;;;;;;-142.18;100.00;63825.25;5077807;28;20068;-74
2021/12/05 15:33:27;;;;;;;10.27;5.72;;;;;;;-142.18;100.00;63825.25;5094190;28;20206;-73
2021/12/05 15:35:56;;;;;;;10.23;5.63;;;;;;;-142.18;100.00;63825.25;5077393;28;20062;-75
2021/12/05 15:38:27;;;;;;;13.90;6.22;;;;;;;-142.18;100.00;63825.25;5077711;28;20080;-75
2021/12/05 15:40:59;;;;;;;8.90;4.70;;;;;;;-142.18;100.00;63825.25;5092845;28;20126;-75
2021/12/05 15:43:27;;;;;;;12.07;5.35;;;;;;;-142.18;100.00;63825.25;5090973;28;20458;-75
2021/12/05 15:45:59;;;;;;;15.57;7.75;;;;;;;-142.18;100.00;63825.25;5092315;28;20057;-75
2021/12/05 15:48:29;;;;;;;19.55;8.68;;;;;;;-142.18;100.00;63825.25;5091128;28;20532;-74
2021/12/05 15:51:00;;;;;;;8.30;4.25;;;;;;;-142.18;100.00;63825.25;5090324;28;20437;-75
2021/12/05 15:53:39;;;;;;;23.23;10.60;;;;;;;-142.18;100.00;63825.25;5075381;28;20045;-76
2021/12/05 15:56:19;;;;;;;25.40;13.68;;;;;;;-142.18;100.00;63825.25;5090772;28;20417;-75
2021/12/05 15:59:02;;;;;;;23.27;13.35;;;;;;;-142.18;100.00;63825.25;5085145;28;20080;-75
2021/12/05 16:01:30;;;;;;;20.98;11.68;;;;;;;-142.18;100.00;63825.25;5089714;28;20070;-75
2021/12/05 16:04:02;;;;;;;27.75;11.68;;;;;;;-142.18;100.00;63825.25;5092261;28;20143;-74
2021/12/05 16:06:41;;;;;;;25.73;12.75;;;;;;;-142.18;100.00;63825.25;5090525;28;20064;-74
2021/12/05 16:09:20;;;;;;;23.70;10.43;;;;;;;-142.18;100.00;63825.25;5087525;28;20060;-75
2021/12/05 16:12:06;;;;;;;18.55;9.48;;;;;;;-142.18;100.00;63825.25;5088662;28;20067;-74
2021/12/05 16:14:52;;;;;;;22.20;9.55;;;;;;;-142.18;100.00;63825.25;5092651;28;20060;-75
2021/12/05 16:17:37;;;;;;;22.95;9.35;;;;;;;-142.18;100.00;63825.25;5086853;28;20137;-75
2021/12/05 16:20:24;;;;;;;16.70;7.47;;;;;;;-142.18;100.00;63825.25;5047047;28;20460;-74